Time;durP1;ratioP1;P1;durP2;ratioP2;P2;SDS_P1;SDS_P2;PMS_P1;PMS_P2;Temp;Humidity;BMP_temperature;BMP_pressure;BME280_temperature;BME280_humidity;BME280_pressure;Samples;Min_cycle;Max_cycle;Signal;HPM_P1;HPM_P2
2022/09/21 00:01:50;;;;;;;;;;;6.80;99.90;;;;;;5072823;28;20363;-78
2022/09/21 00:04:15;;;;;;;;;;;6.70;99.90;;;;;;5054754;28;19928;-77
2022/09/21 00:06:41;;;;;;;;;;;6.70;99.90;;;;;;5055051;28;19959;-76
2022/09/21 00:09:08;;;;;;;;;;;6.60;99.90;;;;;;5054164;28;20003;-79
2022/09/21 00:11:34;;;;;;;;;;;6.60;99.90;;;;;;5072486;28;19927;-78
2022/09/21 00:14:03;;;;;;;;;;;6.60;99.90;;;;;;5054558;28;19924;-77
2022/09/21 00:16:28;;;;;;;;;;;6.60;99.90;;;;;;5072507;28;19921;-77
2022/09/21 00:18:54;;;;;;;;;;;6.60;99.90;;;;;;5037253;28;19927;-76
2022/09/21 00:21:20;;;;;;;;;;;6.60;99.90;;;;;;5072936;28;19920;-77
2022/09/21 00:23:46;;;;;;;;;;;6.50;99.90;;;;;;5072240;28;19920;-77
2022/09/21 00:26:11;;;;;;;;;;;6.50;99.90;;;;;;5072509;28;20326;-79
2022/09/21 00:28:39;;;;;;;;;;;6.50;99.90;;;;;;5072171;28;20363;-76
2022/09/21 00:31:05;;;;;;;;;;;6.40;99.90;;;;;;5071089;28;19927;-77
2022/09/21 00:33:33;;;;;;;;;;;6.40;99.90;;;;;;5071924;28;19924;-77
2022/09/21 00:36:06;;;;;;;;;;;6.50;99.90;;;;;;5072180;28;20255;-77
2022/09/21 00:38:32;;;;;;;;;;;6.40;99.90;;;;;;5054340;28;20282;-77
2022/09/21 00:40:58;;;;;;;;;;;6.40;99.90;;;;;;5053508;28;19924;-77
2022/09/21 00:43:23;;;;;;;;;;;6.40;99.90;;;;;;5054068;28;19934;-76
2022/09/21 00:45:50;;;;;;;;;;;6.40;99.90;;;;;;5071969;28;19916;-77
2022/09/21 00:48:16;;;;;;;;;;;6.30;99.90;;;;;;5053833;28;19970;-76
2022/09/21 00:50:45;;;;;;;;;;;6.30;99.90;;;;;;5071796;28;19924;-76
2022/09/21 00:53:12;;;;;;;;;;;6.30;99.90;;;;;;5071808;28;19947;-76
2022/09/21 00:55:42;;;;;;;;;;;6.30;99.90;;;;;;5071416;28;19924;-76
2022/09/21 00:58:11;;;;;;;;;;;6.20;99.90;;;;;;5071763;28;19928;-77
2022/09/21 01:00:39;;;;;;;;;;;6.30;99.90;;;;;;5071592;28;20325;-76
2022/09/21 01:03:05;;;;;;;;;;;6.20;99.90;;;;;;5071583;28;19920;-77
2022/09/21 01:05:31;;;;;;;;;;;6.20;99.90;;;;;;5071396;28;20429;-77
2022/09/21 01:07:58;;;;;;;;;;;6.20;99.90;;;;;;5053401;28;19925;-75
2022/09/21 01:10:26;;;;;;;;;;;6.20;99.90;;;;;;5052586;28;19974;-76
2022/09/21 01:13:01;;;;;;;;;;;6.20;99.90;;;;;;5071816;28;20013;-78
2022/09/21 01:15:47;;;;;;;;;;;6.20;99.90;;;;;;5053584;28;20283;-78
2022/09/21 01:18:33;;;;;;;;;;;6.20;99.90;;;;;;4973369;28;20011;-77
2022/09/21 01:21:04;;;;;;;;;;;6.20;99.90;;;;;;4988674;28;19929;-77
2022/09/21 01:23:41;;;;;;;;;;;6.10;99.90;;;;;;4973314;28;19961;-76
2022/09/21 01:26:06;;;;;;;;;;;6.10;99.90;;;;;;4989159;28;19995;-78
2022/09/21 01:28:32;;;;;;;;;;;6.10;99.90;;;;;;4989494;28;19925;-80
2022/09/21 01:30:59;;;;;;;;;;;6.10;99.90;;;;;;4973305;28;19926;-77
2022/09/21 01:33:29;;;;;;;;;;;6.10;99.90;;;;;;4989257;28;19988;-77
2022/09/21 01:36:00;;;;;;;;;;;6.00;99.90;;;;;;4973185;28;19922;-76
2022/09/21 01:38:43;;;;;;;;;;;6.00;99.90;;;;;;4972943;28;19933;-78
2022/09/21 01:41:11;;;;;;;;;;;6.00;99.90;;;;;;4972873;28;19961;-78
2022/09/21 01:43:39;;;;;;;;;;;6.00;99.90;;;;;;4988915;28;19929;-78
2022/09/21 01:46:07;;;;;;;;;;;6.00;99.90;;;;;;4973405;28;20317;-76
2022/09/21 01:48:38;;;;;;;;;;;6.00;99.90;;;;;;4973027;28;19971;-77
2022/09/21 01:51:06;;;;;;;;;;;6.00;99.90;;;;;;4973203;28;20362;-77
2022/09/21 01:53:42;;;;;;;;;;;5.90;99.90;;;;;;4989098;28;19926;-76
2022/09/21 01:56:20;;;;;;;;;;;5.90;99.90;;;;;;5057763;28;19970;-77
2022/09/21 01:58:49;;;;;;;;;;;5.90;99.90;;;;;;5052483;28;19998;-77
2022/09/21 02:01:18;;;;;;;;;;;5.90;99.90;;;;;;5052837;28;19920;-78
2022/09/21 02:03:46;;;;;;;;;;;5.90;99.90;;;;;;5070627;28;19930;-77
2022/09/21 02:06:13;;;;;;;;;;;5.80;99.90;;;;;;5071027;28;19924;-78
2022/09/21 02:08:39;;;;;;;;;;;5.90;99.90;;;;;;5070906;28;19970;-76
2022/09/21 02:11:05;;;;;;;;;;;5.80;99.90;;;;;;5070978;28;20340;-77
2022/09/21 02:13:33;;;;;;;;;;;5.80;99.90;;;;;;5070411;28;19921;-77
2022/09/21 02:15:58;;;;;;;;;;;5.80;99.90;;;;;;5070528;28;19920;-78
2022/09/21 02:18:26;;;;;;;;;;;5.80;99.90;;;;;;5070554;28;20568;-77
2022/09/21 02:20:55;;;;;;;;;;;5.70;99.90;;;;;;5073207;28;20379;-78
2022/09/21 02:23:24;;;;;;;;;;;5.70;99.90;;;;;;5057085;28;19920;-77
2022/09/21 02:26:09;;;;;;;;;;;5.60;99.90;;;;;;5074854;28;19924;-77
2022/09/21 02:28:55;;;;;;;;;;;5.60;99.90;;;;;;5074608;28;19921;-79
2022/09/21 02:31:32;;;;;;;;;;;5.70;99.90;;;;;;5074200;28;19939;-77
2022/09/21 02:34:03;;;;;;;;;;;5.60;99.90;;;;;;5073256;28;19935;-77
2022/09/21 02:36:55;;;;;;;;;;;5.60;99.90;;;;;;5074323;28;19924;-76
2022/09/21 02:39:30;;;;;;;;;;;5.60;99.90;;;;;;4992593;28;19985;-78
2022/09/21 02:42:01;;;;;;;;;;;5.60;99.90;;;;;;4992530;28;19936;-77
2022/09/21 02:44:32;;;;;;;;;;;5.60;99.90;;;;;;4975708;28;19925;-77
2022/09/21 02:47:02;;;;;;;;;;;5.60;99.90;;;;;;4992521;28;19925;-78
2022/09/21 02:49:33;;;;;;;;;;;5.60;99.90;;;;;;4992402;28;19971;-77
2022/09/21 02:52:02;;;;;;;;;;;5.50;99.90;;;;;;4976153;28;20009;-77
2022/09/21 02:54:29;;;;;;;;;;;5.50;99.90;;;;;;4992542;28;19931;-76
2022/09/21 02:56:56;;;;;;;;;;;5.50;99.90;;;;;;4976005;28;19948;-78
2022/09/21 02:59:22;;;;;;;;;;;5.50;99.90;;;;;;4992308;28;19933;-77
2022/09/21 03:01:48;;;;;;;;;;;5.50;99.90;;;;;;4991976;28;19944;-77
2022/09/21 03:04:14;;;;;;;;;;;5.50;99.90;;;;;;4975907;28;20417;-79
2022/09/21 03:06:40;;;;;;;;;;;5.40;99.90;;;;;;4975816;28;19925;-78
2022/09/21 03:09:06;;;;;;;;;;;5.50;99.90;;;;;;4992006;28;19921;-79
2022/09/21 03:11:32;;;;;;;;;;;5.40;99.90;;;;;;4992049;28;20882;-77
2022/09/21 03:13:58;;;;;;;;;;;5.40;99.90;;;;;;4975826;28;19921;-78
2022/09/21 03:16:24;;;;;;;;;;;5.40;99.90;;;;;;5041343;28;20307;-79
2022/09/21 03:18:49;;;;;;;;;;;5.40;99.90;;;;;;5074111;28;19921;-77
2022/09/21 03:21:15;;;;;;;;;;;5.30;99.90;;;;;;5073685;28;20385;-76
2022/09/21 03:23:40;;;;;;;;;;;5.60;99.90;;;;;;5055394;28;19920;-78
2022/09/21 03:26:07;;;;;;;;;;;5.30;99.90;;;;;;5073527;28;19927;-80
2022/09/21 03:28:33;;;;;;;;;;;5.30;99.90;;;;;;5073474;28;20487;-77
2022/09/21 03:30:58;;;;;;;;;;;5.30;99.90;;;;;;5073189;28;19920;-76
2022/09/21 03:33:24;;;;;;;;;;;5.30;99.90;;;;;;5072630;28;19927;-78
2022/09/21 03:35:50;;;;;;;;;;;5.20;99.90;;;;;;5073323;28;19924;-76
2022/09/21 03:38:16;;;;;;;;;;;5.30;99.90;;;;;;5073170;28;20299;-77
2022/09/21 03:40:45;;;;;;;;;;;5.30;99.90;;;;;;5073201;28;19928;-78
2022/09/21 03:43:11;;;;;;;;;;;5.30;99.90;;;;;;5073259;28;19999;-77
2022/09/21 03:45:39;;;;;;;;;;;5.20;99.90;;;;;;5055090;28;20035;-77
2022/09/21 03:48:05;;;;;;;;;;;5.20;99.90;;;;;;5072777;28;20221;-76
2022/09/21 03:50:31;;;;;;;;;;;5.20;99.90;;;;;;5055037;28;19920;-77
2022/09/21 03:52:56;;;;;;;;;;;5.20;99.90;;;;;;5072934;28;19920;-77
2022/09/21 03:55:22;;;;;;;;;;;5.30;99.90;;;;;;5054882;28;19969;-77
2022/09/21 03:57:48;;;;;;;;;;;5.10;99.90;;;;;;5073038;28;19932;-77
2022/09/21 04:00:14;;;;;;;;;;;5.10;99.90;;;;;;5055118;28;19924;-77
2022/09/21 04:02:40;;;;;;;;;;;5.10;99.90;;;;;;5072509;28;19924;-76
2022/09/21 04:05:06;;;;;;;;;;;5.10;99.90;;;;;;5072752;28;19935;-76
2022/09/21 04:07:33;;;;;;;;;;;5.10;99.90;;;;;;5072720;28;20014;-76
2022/09/21 04:09:59;;;;;;;;;;;5.10;99.90;;;;;;5072452;28;19925;-76
2022/09/21 04:12:24;;;;;;;;;;;5.10;99.90;;;;;;5072832;28;19931;-77
2022/09/21 04:14:50;;;;;;;;;;;5.10;99.90;;;;;;5054762;28;19921;-77
2022/09/21 04:17:16;;;;;;;;;;;5.00;99.90;;;;;;5072629;28;19924;-77
2022/09/21 04:19:43;;;;;;;;;;;5.10;99.90;;;;;;5054132;28;20389;-77
2022/09/21 04:22:10;;;;;;;;;;;5.10;99.90;;;;;;5072337;28;19920;-76
2022/09/21 04:24:37;;;;;;;;;;;5.00;99.90;;;;;;5054638;28;19927;-76
2022/09/21 04:27:03;;;;;;;;;;;5.00;99.90;;;;;;5072286;28;19970;-77
2022/09/21 04:29:28;;;;;;;;;;;5.00;99.90;;;;;;5054509;28;19960;-76
2022/09/21 04:31:54;;;;;;;;;;;5.00;99.90;;;;;;5072272;28;19920;-79
2022/09/21 04:34:20;;;;;;;;;;;5.00;99.90;;;;;;5053964;28;19940;-75
2022/09/21 04:36:46;;;;;;;;;;;5.00;99.90;;;;;;5053953;28;19928;-75
2022/09/21 04:39:11;;;;;;;;;;;4.90;99.90;;;;;;5072347;28;19920;-75
2022/09/21 04:41:37;;;;;;;;;;;5.10;99.90;;;;;;5071745;28;19946;-76
2022/09/21 04:44:02;;;;;;;;;;;4.90;99.90;;;;;;5071109;28;20514;-79
2022/09/21 04:46:28;;;;;;;;;;;4.90;99.90;;;;;;5071960;28;20058;-77
2022/09/21 04:48:53;;;;;;;;;;;5.00;99.90;;;;;;5071906;28;19928;-76
2022/09/21 04:51:19;;;;;;;;;;;4.90;99.90;;;;;;5071329;28;19921;-76
2022/09/21 04:53:44;;;;;;;;;;;4.90;99.90;;;;;;5071701;28;19935;-76
2022/09/21 04:56:12;;;;;;;;;;;4.90;99.90;;;;;;5071510;28;19928;-77
2022/09/21 04:58:37;;;;;;;;;;;4.90;99.90;;;;;;5053928;28;20409;-76
2022/09/21 05:01:05;;;;;;;;;;;4.90;99.90;;;;;;5071766;28;19946;-76
2022/09/21 05:03:30;;;;;;;;;;;4.90;99.90;;;;;;5071593;28;20272;-76
2022/09/21 05:05:56;;;;;;;;;;;4.90;99.90;;;;;;5069753;28;20019;-76
2022/09/21 05:11:14;;;;;;;;;;;4.90;99.90;;;;;;5053685;28;20284;-77
2022/09/21 05:13:40;;;;;;;;;;;5.60;99.90;;;;;;5071497;28;19917;-76
2022/09/21 05:16:06;;;;;;;;;;;4.90;99.90;;;;;;5071318;28;19924;-74
2022/09/21 05:18:31;;;;;;;;;;;4.90;99.90;;;;;;5071235;28;20388;-75
2022/09/21 05:20:58;;;;;;;;;;;4.90;99.90;;;;;;5052913;28;20284;-76
2022/09/21 05:23:23;;;;;;;;;;;4.90;99.90;;;;;;5071262;28;19952;-77
2022/09/21 05:25:49;;;;;;;;;;;4.90;99.90;;;;;;5071176;28;20013;-75
2022/09/21 05:28:16;;;;;;;;;;;4.90;99.90;;;;;;5071269;28;19928;-76
2022/09/21 05:30:43;;;;;;;;;;;4.90;99.90;;;;;;5053524;28;19925;-76
2022/09/21 05:33:12;;;;;;;;;;;5.00;99.90;;;;;;5071273;28;19920;-75
2022/09/21 05:35:44;;;;;;;;;;;5.00;99.90;;;;;;5071124;28;20363;-77
2022/09/21 05:38:19;;;;;;;;;;;5.00;99.90;;;;;;5070674;28;20440;-75
2022/09/21 05:40:49;;;;;;;;;;;5.00;99.90;;;;;;5070865;28;19920;-75
2022/09/21 05:43:15;;;;;;;;;;;5.10;99.90;;;;;;5052609;28;19921;-75
2022/09/21 05:45:43;;;;;;;;;;;5.10;99.90;;;;;;5070966;28;19924;-75
2022/09/21 05:48:17;;;;;;;;;;;5.10;99.90;;;;;;5070850;28;19928;-77
2022/09/21 05:50:48;;;;;;;;;;;5.10;99.90;;;;;;5070861;28;19924;-77
2022/09/21 05:53:19;;;;;;;;;;;5.10;99.90;;;;;;5052614;28;19959;-75
2022/09/21 05:55:58;;;;;;;;;;;5.10;99.90;;;;;;5070612;28;19924;-74
2022/09/21 05:58:36;;;;;;;;;;;5.20;99.90;;;;;;5053008;28;20406;-76
2022/09/21 06:01:13;;;;;;;;;;;5.20;99.90;;;;;;5070637;28;19927;-75
2022/09/21 06:03:40;;;;;;;;;;;5.20;99.90;;;;;;5070784;28;20015;-75
2022/09/21 06:06:07;;;;;;;;;;;5.20;99.90;;;;;;5070768;28;19928;-74
2022/09/21 06:08:32;;;;;;;;;;;5.30;99.90;;;;;;5070477;28;19924;-75
2022/09/21 06:10:58;;;;;;;;;;;5.50;99.90;;;;;;5052884;28;19924;-76
2022/09/21 06:13:23;;;;;;;;;;;5.30;99.90;;;;;;5070728;28;20039;-76
2022/09/21 06:15:49;;;;;;;;;;;5.30;99.90;;;;;;5052558;28;19924;-76
2022/09/21 06:18:14;;;;;;;;;;;5.40;99.90;;;;;;5052644;28;19920;-76
2022/09/21 06:20:40;;;;;;;;;;;5.40;99.90;;;;;;5052657;28;19920;-75
2022/09/21 06:23:07;;;;;;;;;;;5.40;99.90;;;;;;5052411;28;19978;-75
2022/09/21 06:25:32;;;;;;;;;;;5.50;99.90;;;;;;5052551;28;20022;-75
2022/09/21 06:28:05;;;;;;;;;;;5.50;99.90;;;;;;5070603;28;20007;-75
2022/09/21 06:30:33;;;;;;;;;;;5.60;99.90;;;;;;5070360;28;19924;-76
2022/09/21 06:33:00;;;;;;;;;;;5.60;99.90;;;;;;5052617;28;19927;-74
2022/09/21 06:35:26;;;;;;;;;;;5.60;99.90;;;;;;5052678;28;20342;-75
2022/09/21 06:37:51;;;;;;;;;;;5.70;99.90;;;;;;5070537;28;19920;-75
2022/09/21 06:40:17;;;;;;;;;;;5.70;99.90;;;;;;5051968;28;19950;-76
2022/09/21 06:42:42;;;;;;;;;;;5.80;99.90;;;;;;5070094;28;19924;-74
2022/09/21 06:45:08;;;;;;;;;;;5.90;99.90;;;;;;5052236;28;19976;-75
2022/09/21 06:47:33;;;;;;;;;;;5.90;99.90;;;;;;5052463;28;19924;-76
2022/09/21 06:49:59;;;;;;;;;;;6.00;99.90;;;;;;5070566;28;19927;-76
2022/09/21 06:52:24;;;;;;;;;;;6.00;99.90;;;;;;5070692;28;19947;-75
2022/09/21 06:54:50;;;;;;;;;;;6.10;99.90;;;;;;5070258;28;19976;-75
2022/09/21 06:57:15;;;;;;;;;;;6.30;99.90;;;;;;5070449;28;19924;-75
2022/09/21 06:59:41;;;;;;;;;;;6.30;99.90;;;;;;5065893;28;19929;-74
2022/09/21 07:02:07;;;;;;;;;;;6.30;99.90;;;;;;5050183;28;19925;-74
2022/09/21 07:04:33;;;;;;;;;;;6.50;99.90;;;;;;5050432;28;19931;-74
2022/09/21 07:06:59;;;;;;;;;;;6.50;99.90;;;;;;5051033;28;19921;-76
2022/09/21 07:09:24;;;;;;;;;;;6.60;99.90;;;;;;5053801;28;19928;-74
2022/09/21 07:11:50;;;;;;;;;;;6.70;99.90;;;;;;5053173;28;19921;-75
2022/09/21 07:14:15;;;;;;;;;;;6.80;99.90;;;;;;5035706;28;19924;-75
2022/09/21 07:16:42;;;;;;;;;;;6.90;99.90;;;;;;5053574;28;19924;-75
2022/09/21 07:19:07;;;;;;;;;;;7.00;99.90;;;;;;5035690;28;19925;-76
2022/09/21 07:21:33;;;;;;;;;;;7.20;99.90;;;;;;5053520;28;20371;-74
2022/09/21 07:23:59;;;;;;;;;;;7.40;99.90;;;;;;5035606;28;19928;-75
2022/09/21 07:26:25;;;;;;;;;;;7.50;99.90;;;;;;5053269;28;19932;-74
2022/09/21 07:28:50;;;;;;;;;;;7.70;99.90;;;;;;5035575;28;19966;-75
2022/09/21 07:31:16;;;;;;;;;;;7.80;99.90;;;;;;5053389;28;19921;-74
2022/09/21 07:33:43;;;;;;;;;;;8.00;99.90;;;;;;5035263;28;20392;-74
2022/09/21 07:36:09;;;;;;;;;;;8.50;99.90;;;;;;5035484;28;19925;-74
2022/09/21 07:38:38;;;;;;;;;;;8.30;99.90;;;;;;5053269;28;19924;-75
2022/09/21 07:41:05;;;;;;;;;;;8.50;99.90;;;;;;5035696;28;19920;-77
2022/09/21 07:43:32;;;;;;;;;;;8.50;99.90;;;;;;5053253;28;19927;-75
2022/09/21 07:45:58;;;;;;;;;;;8.70;99.90;;;;;;5053039;28;20462;-75
2022/09/21 07:48:24;;;;;;;;;;;8.80;99.90;;;;;;5053100;28;19928;-75
2022/09/21 07:50:49;;;;;;;;;;;9.00;99.90;;;;;;5053074;28;19924;-75
2022/09/21 07:53:16;;;;;;;;;;;9.20;99.90;;;;;;5034973;28;19928;-75
2022/09/21 07:55:42;;;;;;;;;;;9.30;99.90;;;;;;5053017;28;20300;-75
2022/09/21 08:00:51;;;;;;;;;;;9.60;99.90;;;;;;5034911;28;19920;-76
2022/09/21 08:03:17;;;;;;;;;;;9.80;99.90;;;;;;5052803;28;19928;-76
2022/09/21 08:05:42;;;;;;;;;;;9.90;99.90;;;;;;5053047;28;20288;-77
2022/09/21 08:08:08;;;;;;;;;;;10.20;99.90;;;;;;5052768;28;19925;-77
2022/09/21 08:10:34;;;;;;;;;;;10.30;99.90;;;;;;5052800;28;19999;-77
2022/09/21 08:13:00;;;;;;;;;;;10.80;99.90;;;;;;5052425;28;20328;-74
2022/09/21 08:15:26;;;;;;;;;;;10.80;99.90;;;;;;5052566;28;20019;-75
2022/09/21 08:17:52;;;;;;;;;;;11.00;99.90;;;;;;5034436;28;19931;-75
2022/09/21 08:20:18;;;;;;;;;;;11.40;99.90;;;;;;5052631;28;19927;-76
2022/09/21 08:22:43;;;;;;;;;;;11.80;99.90;;;;;;5052446;28;20328;-75
2022/09/21 08:25:09;;;;;;;;;;;11.70;99.90;;;;;;5052428;28;20284;-76
2022/09/21 08:27:35;;;;;;;;;;;11.90;99.90;;;;;;5052240;28;20129;-76
2022/09/21 08:30:01;;;;;;;;;;;12.20;99.90;;;;;;5051902;28;19924;-76
2022/09/21 08:32:27;;;;;;;;;;;12.60;99.90;;;;;;5052229;28;19927;-76
2022/09/21 08:34:53;;;;;;;;;;;12.80;99.90;;;;;;5052204;28;19928;-75
2022/09/21 08:37:20;;;;;;;;;;;13.00;99.90;;;;;;5033661;28;19924;-76
2022/09/21 08:39:46;;;;;;;;;;;13.30;99.90;;;;;;5051938;28;19932;-76
2022/09/21 08:42:29;;;;;;;;;;;13.70;99.90;;;;;;5051820;28;19925;-75
2022/09/21 08:44:57;;;;;;;;;;;13.80;99.90;;;;;;5033766;28;20023;-76
2022/09/21 08:47:35;;;;;;;;;;;14.10;99.90;;;;;;5051940;28;20386;-75
2022/09/21 08:50:02;;;;;;;;;;;14.40;99.90;;;;;;5051895;28;19951;-75
2022/09/21 08:52:27;;;;;;;;;;;14.60;99.90;;;;;;5052087;28;19931;-76
2022/09/21 08:55:01;;;;;;;;;;;14.90;99.90;;;;;;5051844;28;20014;-77
2022/09/21 08:57:31;;;;;;;;;;;15.10;99.90;;;;;;5034025;28;20030;-77
2022/09/21 08:59:57;;;;;;;;;;;15.30;99.90;;;;;;5033664;28;19921;-77
2022/09/21 09:02:37;;;;;;;;;;;15.50;99.90;;;;;;5051680;28;19925;-75
2022/09/21 09:05:12;;;;;;;;;;;15.80;99.90;;;;;;5051791;28;19931;-82
2022/09/21 09:07:54;;;;;;;;;;;16.00;99.90;;;;;;5051482;28;19921;-82
2022/09/21 09:10:36;;;;;;;;;;;16.20;99.90;;;;;;5051609;28;19943;-79
2022/09/21 09:13:15;;;;;;;;;;;16.60;99.90;;;;;;5051802;28;19925;-77
2022/09/21 09:15:46;;;;;;;;;;;16.60;99.90;;;;;;5051196;28;19921;-77
2022/09/21 09:18:18;;;;;;;;;;;16.80;99.90;;;;;;5051340;28;19930;-76
2022/09/21 09:21:06;;;;;;;;;;;16.90;99.90;;;;;;5033764;28;20304;-77
2022/09/21 09:23:36;;;;;;;;;;;17.00;99.90;;;;;;4954079;28;19926;-77
2022/09/21 09:26:07;;;;;;;;;;;17.50;99.90;;;;;;4954343;28;19930;-76
2022/09/21 09:28:33;;;;;;;;;;;17.50;99.90;;;;;;4970204;28;19926;-77
2022/09/21 09:31:02;;;;;;;;;;;17.60;99.90;;;;;;4969350;28;20493;-78
2022/09/21 09:33:46;;;;;;;;;;;17.70;99.90;;;;;;4953874;28;19925;-78
2022/09/21 09:36:12;;;;;;;;;;;17.80;99.90;;;;;;4970199;28;19926;-78
2022/09/21 09:38:41;;;;;;;;;;;18.00;99.90;;;;;;4937870;28;19989;-78
2022/09/21 09:41:12;;;;;;;;;;;18.20;99.90;;;;;;4969909;28;19922;-78
2022/09/21 09:43:45;;;;;;;;;;;18.40;99.90;;;;;;4969956;28;19933;-78
2022/09/21 09:46:16;;;;;;;;;;;18.50;99.90;;;;;;4969852;28;19922;-78
2022/09/21 09:48:56;;;;;;;;;;;18.60;99.90;;;;;;4969566;28;20116;-79
2022/09/21 09:51:22;;;;;;;;;;;18.80;99.90;;;;;;4953830;28;19922;-78
2022/09/21 09:53:48;;;;;;;;;;;19.00;99.90;;;;;;4969873;28;19926;-78
2022/09/21 09:56:15;;;;;;;;;;;19.00;99.90;;;;;;4969988;28;19922;-79
2022/09/21 09:58:51;;;;;;;;;;;19.10;99.90;;;;;;4953760;28;19922;-78
2022/09/21 10:01:35;;;;;;;;;;;19.30;99.90;;;;;;5017448;28;19917;-81
2022/09/21 10:04:05;;;;;;;;;;;19.50;99.90;;;;;;5032746;28;19921;-78
2022/09/21 10:06:31;;;;;;;;;;;19.30;99.90;;;;;;5050654;28;19994;-78
2022/09/21 10:08:57;;;;;;;;;;;19.10;99.90;;;;;;5050759;28;19921;-78
2022/09/21 10:11:32;;;;;;;;;;;18.90;99.90;;;;;;5032776;28;19953;-78
2022/09/21 10:14:05;;;;;;;;;;;18.60;99.90;;;;;;5032570;28;19921;-79
2022/09/21 10:16:31;;;;;;;;;;;18.50;99.90;;;;;;5050658;28;19951;-79
2022/09/21 10:19:00;;;;;;;;;;;18.60;99.90;;;;;;5050404;28;19921;-79
2022/09/21 10:21:31;;;;;;;;;;;18.50;99.90;;;;;;5050895;28;19932;-85
2022/09/21 10:23:58;;;;;;;;;;;18.50;99.90;;;;;;5016725;28;20023;-83
2022/09/21 10:26:29;;;;;;;;;;;18.70;99.90;;;;;;5050799;28;19959;-84
2022/09/21 10:28:59;;;;;;;;;;;19.00;99.90;;;;;;5050641;28;19931;-78
2022/09/21 10:31:26;;;;;;;;;;;19.20;99.90;;;;;;5050358;28;19933;-80
2022/09/21 10:34:00;;;;;;;;;;;19.20;99.90;;;;;;5050243;28;20335;-81
2022/09/21 10:36:28;;;;;;;;;;;19.10;99.90;;;;;;5050434;28;20303;-81
2022/09/21 10:38:53;;;;;;;;;;;19.10;99.70;;;;;;5032588;28;19932;-80
2022/09/21 10:41:19;;;;;;;;;;;19.10;99.90;;;;;;5051607;28;19921;-82
2022/09/21 10:43:45;;;;;;;;;;;19.20;99.50;;;;;;5054287;28;20019;-78
2022/09/21 10:46:10;;;;;;;;;;;19.40;99.30;;;;;;5019497;28;19951;-76
2022/09/21 10:48:36;;;;;;;;;;;19.70;99.90;;;;;;5054241;28;19966;-78
2022/09/21 10:51:02;;;;;;;;;;;19.80;99.30;;;;;;5035394;28;19978;-79
2022/09/21 10:53:32;;;;;;;;;;;19.70;99.20;;;;;;5036263;28;19925;-80
2022/09/21 10:56:01;;;;;;;;;;;19.90;99.60;;;;;;5054069;28;19924;-80
2022/09/21 10:58:27;;;;;;;;;;;20.10;99.40;;;;;;5054251;28;19920;-77
2022/09/21 11:00:54;;;;;;;;;;;20.30;99.90;;;;;;5036441;28;19931;-78
2022/09/21 11:03:29;;;;;;;;;;;20.30;99.90;;;;;;5054016;28;19920;-78
2022/09/21 11:06:05;;;;;;;;;;;20.20;99.40;;;;;;5053524;28;19927;-78
2022/09/21 11:08:34;;;;;;;;;;;20.30;99.90;;;;;;5054017;28;19928;-78
2022/09/21 11:11:22;;;;;;;;;;;20.50;99.90;;;;;;5053827;28;19960;-80
2022/09/21 11:14:00;;;;;;;;;;;20.60;98.70;;;;;;5042848;28;20351;-82
2022/09/21 11:16:44;;;;;;;;;;;20.70;97.60;;;;;;5035714;28;19942;-80
2022/09/21 11:19:25;;;;;;;;;;;20.90;99.50;;;;;;5019377;28;19925;-79
2022/09/21 11:21:54;;;;;;;;;;;20.80;96.90;;;;;;5053717;28;19916;-78
2022/09/21 11:24:36;;;;;;;;;;;20.90;98.60;;;;;;5053573;28;19921;-82
2022/09/21 11:27:06;;;;;;;;;;;20.90;97.20;;;;;;5035762;28;19924;-79
2022/09/21 11:29:35;;;;;;;;;;;20.90;96.10;;;;;;5053480;28;19943;-77
2022/09/21 11:32:09;;;;;;;;;;;20.90;98.80;;;;;;5053600;28;19921;-80
2022/09/21 11:34:53;;;;;;;;;;;21.00;97.20;;;;;;5053405;28;19917;-80
2022/09/21 11:37:25;;;;;;;;;;;21.10;96.70;;;;;;5034788;28;19971;-80
2022/09/21 11:40:09;;;;;;;;;;;21.20;96.60;;;;;;5053331;28;19942;-78
2022/09/21 11:42:53;;;;;;;;;;;21.30;96.90;;;;;;5053057;28;20408;-78
2022/09/21 11:45:37;;;;;;;;;;;21.30;96.90;;;;;;5035763;28;19994;-77
2022/09/21 11:48:08;;;;;;;;;;;21.40;97.20;;;;;;5053186;28;19932;-78
2022/09/21 11:50:34;;;;;;;;;;;21.40;98.70;;;;;;5053302;28;19925;-78
2022/09/21 11:53:06;;;;;;;;;;;21.40;95.40;;;;;;5034510;28;19925;-79
2022/09/21 11:55:46;;;;;;;;;;;21.60;97.90;;;;;;5053036;28;20012;-80
2022/09/21 11:58:30;;;;;;;;;;;21.70;95.10;;;;;;5052898;28;19920;-79
2022/09/21 12:01:15;;;;;;;;;;;21.80;97.00;;;;;;5034953;28;19963;-78
2022/09/21 12:03:48;;;;;;;;;;;21.70;96.20;;;;;;5052954;28;19927;-78
2022/09/21 12:06:19;;;;;;;;;;;21.70;98.20;;;;;;5052637;28;19925;-80
2022/09/21 12:08:50;;;;;;;;;;;21.30;95.70;;;;;;5034830;28;19928;-80
2022/09/21 12:11:16;;;;;;;;;;;21.00;93.80;;;;;;5053189;28;19929;-80
2022/09/21 12:13:41;;;;;;;;;;;20.90;94.20;;;;;;5052993;28;19928;-83
2022/09/21 12:16:16;;;;;;;;;;;21.10;94.10;;;;;;5034887;28;19928;-81
2022/09/21 12:18:50;;;;;;;;;;;20.90;93.30;;;;;;5052599;28;19920;-81
2022/09/21 12:21:20;;;;;;;;;;;20.70;94.00;;;;;;5034446;28;19925;-86
2022/09/21 12:23:49;;;;;;;;;;;20.50;93.60;;;;;;5034138;28;20303;-84
2022/09/21 12:26:19;;;;;;;;;;;20.40;93.80;;;;;;5034483;28;19975;-83
2022/09/21 12:29:14;;;;;;;;;;;20.50;95.00;;;;;;5052465;28;19932;-81
2022/09/21 12:31:48;;;;;;;;;;;20.70;93.60;;;;;;5034637;28;19924;-81
2022/09/21 12:34:14;;;;;;;;;;;20.80;94.00;;;;;;5052050;28;20003;-80
2022/09/21 12:37:03;;;;;;;;;;;21.20;93.70;;;;;;5052069;28;20364;-80
2022/09/21 12:39:38;;;;;;;;;;;21.00;93.90;;;;;;4970730;28;19993;-79
2022/09/21 12:42:24;;;;;;;;;;;20.80;95.50;;;;;;4970913;28;19932;-79
2022/09/21 12:44:55;;;;;;;;;;;21.00;95.80;;;;;;4960761;28;20374;-81
2022/09/21 12:47:26;;;;;;;;;;;21.10;94.50;;;;;;4954933;28;19969;-80
2022/09/21 12:49:55;;;;;;;;;;;21.30;95.50;;;;;;4954578;28;19918;-81
2022/09/21 12:52:23;;;;;;;;;;;21.40;93.70;;;;;;4970809;28;19922;-80
2022/09/21 12:54:48;;;;;;;;;;;21.60;94.00;;;;;;4970392;28;19925;-81
2022/09/21 12:57:26;;;;;;;;;;;21.80;92.40;;;;;;4938383;28;19956;-79
2022/09/21 13:00:07;;;;;;;;;;;21.70;97.10;;;;;;4970678;28;19922;-79
2022/09/21 13:02:33;;;;;;;;;;;21.70;94.40;;;;;;4970426;28;19921;-80
2022/09/21 13:05:19;;;;;;;;;;;21.60;93.70;;;;;;4969809;28;19978;-80
2022/09/21 13:07:54;;;;;;;;;;;21.80;93.30;;;;;;4954615;28;20329;-79
2022/09/21 13:10:39;;;;;;;;;;;22.00;93.80;;;;;;4970160;28;20278;-78
2022/09/21 13:13:09;;;;;;;;;;;22.00;93.20;;;;;;4970577;28;20413;-78
2022/09/21 13:15:42;;;;;;;;;;;22.20;94.10;;;;;;4975469;28;19922;-78
2022/09/21 13:18:20;;;;;;;;;;;22.00;94.80;;;;;;5011804;28;20059;-80
2022/09/21 13:20:47;;;;;;;;;;;22.10;94.10;;;;;;5010356;28;19925;-79
2022/09/21 13:23:14;;;;;;;;;;;22.10;94.30;;;;;;5011900;28;19929;-81
2022/09/21 13:25:40;;;;;;;;;;;22.20;92.60;;;;;;5010509;28;19940;-77
2022/09/21 13:28:12;;;;;;;;;;;22.30;95.00;;;;;;5011573;28;19925;-81
2022/09/21 13:30:39;;;;;;;;;;;22.30;94.30;;;;;;5010391;28;19940;-79
2022/09/21 13:33:21;;;;;;;;;;;22.40;92.10;;;;;;5011770;28;19928;-78
2022/09/21 13:36:00;;;;;;;;;;;22.50;93.70;;;;;;5011609;28;19932;-78
2022/09/21 13:38:29;;;;;;;;;;;22.40;94.60;;;;;;5011663;28;19933;-78
2022/09/21 13:41:02;;;;;;;;;;;22.20;93.80;;;;;;5021026;28;19925;-78
2022/09/21 13:43:46;;;;;;;;;;;22.20;94.20;;;;;;5050453;28;19926;-78
2022/09/21 13:46:42;;;;;;;;;;;22.30;93.50;;;;;;5033063;28;19943;-77
2022/09/21 13:49:10;;;;;;;;;;;22.00;93.40;;;;;;5033434;28;19924;-82
2022/09/21 13:51:51;;;;;;;;;;;22.10;91.70;;;;;;5050862;28;19932;-79
2022/09/21 13:54:19;;;;;;;;;;;22.20;92.80;;;;;;5050963;28;20363;-80
2022/09/21 13:56:45;;;;;;;;;;;22.40;91.20;;;;;;5050977;28;19925;-78
2022/09/21 13:59:21;;;;;;;;;;;22.50;90.90;;;;;;5032868;28;19921;-81
2022/09/21 14:01:50;;;;;;;;;;;22.30;92.10;;;;;;5051147;28;19921;-89
2022/09/21 14:04:18;;;;;;;;;;;22.30;90.50;;;;;;5050745;28;19925;-80
2022/09/21 14:06:46;;;;;;;;;;;22.50;91.80;;;;;;5051012;28;19928;-79
2022/09/21 14:09:27;;;;;;;;;;;22.40;92.50;;;;;;5050951;28;19920;-79
2022/09/21 14:12:05;;;;;;;;;;;22.10;91.50;;;;;;5032717;28;19928;-80
2022/09/21 14:14:32;;;;;;;;;;;22.00;92.10;;;;;;5050471;28;19987;-80
2022/09/21 14:17:01;;;;;;;;;;;22.10;91.40;;;;;;5053242;28;20398;-82
2022/09/21 14:19:30;;;;;;;;;;;21.90;91.90;;;;;;5036810;28;19921;-79
2022/09/21 14:22:02;;;;;;;;;;;21.90;92.10;;;;;;5020590;28;19929;-79
2022/09/21 14:24:41;;;;;;;;;;;22.30;93.30;;;;;;5055006;28;19921;-79
2022/09/21 14:27:24;;;;;;;;;;;22.30;91.80;;;;;;5036745;28;19921;-79
2022/09/21 14:29:55;;;;;;;;;;;22.30;92.60;;;;;;5036315;28;19924;-79
2022/09/21 14:32:25;;;;;;;;;;;22.50;92.70;;;;;;5054679;28;19920;-78
2022/09/21 14:34:55;;;;;;;;;;;22.50;91.80;;;;;;5054694;28;19951;-81
2022/09/21 14:37:26;;;;;;;;;;;22.70;91.80;;;;;;5036536;28;19921;-80
2022/09/21 14:39:52;;;;;;;;;;;22.90;91.80;;;;;;5054279;28;19925;-79
2022/09/21 14:42:20;;;;;;;;;;;22.90;92.00;;;;;;5054130;28;19928;-79
2022/09/21 14:44:50;;;;;;;;;;;23.10;92.90;;;;;;5053881;28;20377;-79